UAL2330 KFLL-KEWR
Flight info
| Callsign | UAL2330 |
|---|---|
| Flight time | 2h 27m |
| Altitude | 35000 |
| Route | AGERS1 DUCEN Q87 VIYAP SUSYQ Q87 ALWZZ OGRAE Q99 QUART PHLBO4 |
| Aircraft | B739/M-SDE2E3FGHIRWXY/LB1 |
Departure
| Time | 2026-04-24 22:40 |
|---|---|
| Airport | Fort Lauderdale Hollywood International Airport (KFLL) |
Arrival
| Time | 2026-04-25 01:07 |
|---|---|
| Airport | Newark Liberty International Airport (KEWR) |
| Time | Latitude | Longitude | Altitude | Speed | Heading |
|---|---|---|---|---|---|
| 2026-04-24 22:09 | 26.07385 | -80.13646 | 15 ft | 0 kts | 104° |
| 2026-04-24 22:28 | 26.07389 | -80.13670 | 15 ft | 4 kts | 77° |
| 2026-04-24 22:28 | 26.07377 | -80.13690 | 15 ft | 4 kts | 14° |
| 2026-04-24 22:29 | 26.07362 | -80.13692 | 15 ft | 0 kts | 0° |
| 2026-04-24 22:33 | 26.07373 | -80.13692 | 15 ft | 5 kts | 0° |
| 2026-04-24 22:34 | 26.07426 | -80.13692 | 15 ft | 9 kts | 359° |
| 2026-04-24 22:34 | 26.07489 | -80.13722 | 15 ft | 11 kts | 333° |
| 2026-04-24 22:34 | 26.07517 | -80.13797 | 15 ft | 12 kts | 269° |
| 2026-04-24 22:34 | 26.07532 | -80.13895 | 15 ft | 14 kts | 293° |
| 2026-04-24 22:35 | 26.07557 | -80.14002 | 15 ft | 15 kts | 268° |
| 2026-04-24 22:35 | 26.07557 | -80.14128 | 16 ft | 17 kts | 270° |
| 2026-04-24 22:35 | 26.07558 | -80.14270 | 16 ft | 19 kts | 270° |
| 2026-04-24 22:35 | 26.07559 | -80.14414 | 16 ft | 19 kts | 270° |
| 2026-04-24 22:36 | 26.07559 | -80.14556 | 16 ft | 18 kts | 270° |
| 2026-04-24 22:36 | 26.07561 | -80.14692 | 16 ft | 17 kts | 271° |
| 2026-04-24 22:36 | 26.07562 | -80.14845 | 15 ft | 26 kts | 269° |
| 2026-04-24 22:36 | 26.07563 | -80.15077 | 17 ft | 31 kts | 270° |
| 2026-04-24 22:37 | 26.07563 | -80.15311 | 15 ft | 29 kts | 270° |
| 2026-04-24 22:37 | 26.07565 | -80.15532 | 15 ft | 28 kts | 270° |
| 2026-04-24 22:37 | 26.07566 | -80.15740 | 15 ft | 26 kts | 271° |
| 2026-04-24 22:37 | 26.07567 | -80.15936 | 15 ft | 24 kts | 270° |
| 2026-04-24 22:38 | 26.07568 | -80.16117 | 16 ft | 23 kts | 270° |
| 2026-04-24 22:38 | 26.07570 | -80.16282 | 16 ft | 20 kts | 270° |
| 2026-04-24 22:38 | 26.07570 | -80.16435 | 16 ft | 20 kts | 270° |
| 2026-04-24 22:38 | 26.07571 | -80.16583 | 17 ft | 18 kts | 273° |
| 2026-04-24 22:39 | 26.07629 | -80.16643 | 16 ft | 12 kts | 359° |
| 2026-04-24 22:39 | 26.07694 | -80.16598 | 20 ft | 12 kts | 72° |
| 2026-04-24 22:39 | 26.07695 | -80.16486 | 18 ft | 29 kts | 90° |
| 2026-04-24 22:39 | 26.07691 | -80.16002 | 18 ft | 95 kts | 90° |
| 2026-04-24 22:40 | 26.07687 | -80.15064 | 15 ft | 147 kts | 90° |
| 2026-04-24 22:40 | 26.07664 | -80.13800 | 233 ft | 169 kts | 93° |
| 2026-04-24 22:40 | 26.07653 | -80.12508 | 871 ft | 169 kts | 91° |
| 2026-04-24 22:40 | 26.07686 | -80.11189 | 1435 ft | 174 kts | 90° |
| 2026-04-24 22:41 | 26.07822 | -80.09850 | 2048 ft | 176 kts | 72° |
| 2026-04-24 22:41 | 26.08463 | -80.08617 | 2435 ft | 194 kts | 58° |
| 2026-04-24 22:41 | 26.09309 | -80.07339 | 2690 ft | 215 kts | 49° |
| 2026-04-24 22:41 | 26.10105 | -80.06650 | 2859 ft | 229 kts | 29° |
| 2026-04-24 22:42 | 26.12205 | -80.05799 | 3267 ft | 247 kts | 21° |
| 2026-04-24 22:42 | 26.13842 | -80.05163 | 3780 ft | 252 kts | 21° |
| 2026-04-24 22:42 | 26.15608 | -80.04754 | 4007 ft | 271 kts | 356° |
| 2026-04-24 22:42 | 26.17450 | -80.05310 | 4608 ft | 278 kts | 340° |
| 2026-04-24 22:43 | 26.19266 | -80.06032 | 5448 ft | 277 kts | 340° |
| 2026-04-24 22:43 | 26.21053 | -80.06761 | 6195 ft | 279 kts | 334° |
| 2026-04-24 22:43 | 26.22559 | -80.08098 | 6870 ft | 280 kts | 304° |
| 2026-04-24 22:43 | 26.23438 | -80.10010 | 7612 ft | 280 kts | 291° |
| 2026-04-24 22:44 | 26.24146 | -80.12045 | 8294 ft | 284 kts | 290° |
| 2026-04-24 22:44 | 26.24858 | -80.14111 | 8975 ft | 287 kts | 291° |
| 2026-04-24 22:44 | 26.25930 | -80.15985 | 9575 ft | 292 kts | 319° |
| 2026-04-24 22:44 | 26.27644 | -80.17192 | 10317 ft | 293 kts | 331° |
| 2026-04-24 22:45 | 26.29524 | -80.18239 | 10583 ft | 313 kts | 332° |
| 2026-04-24 22:45 | 26.31540 | -80.19340 | 10751 ft | 333 kts | 332° |
| 2026-04-24 22:45 | 26.33671 | -80.20522 | 10903 ft | 351 kts | 332° |
| 2026-04-24 22:45 | 26.35908 | -80.21779 | 11043 ft | 368 kts | 332° |
| 2026-04-24 22:46 | 26.38289 | -80.22896 | 11171 ft | 386 kts | 345° |
| 2026-04-24 22:46 | 26.40983 | -80.23220 | 11551 ft | 393 kts | 354° |
| 2026-04-24 22:46 | 26.43722 | -80.23431 | 12072 ft | 395 kts | 353° |
| 2026-04-24 22:46 | 26.46467 | -80.23682 | 12643 ft | 396 kts | 353° |
| 2026-04-24 22:47 | 26.49217 | -80.23958 | 13167 ft | 399 kts | 352° |
| 2026-04-24 22:47 | 26.51995 | -80.24245 | 13657 ft | 402 kts | 352° |
| 2026-04-24 22:47 | 26.54784 | -80.24534 | 14159 ft | 405 kts | 352° |
| 2026-04-24 22:47 | 26.57597 | -80.24855 | 14670 ft | 407 kts | 350° |
| 2026-04-24 22:48 | 26.60399 | -80.25311 | 15163 ft | 409 kts | 348° |
| 2026-04-24 22:48 | 26.63226 | -80.25820 | 15681 ft | 412 kts | 348° |
| 2026-04-24 22:48 | 26.66069 | -80.26320 | 16169 ft | 415 kts | 348° |
| 2026-04-24 22:48 | 26.68930 | -80.26805 | 16666 ft | 418 kts | 349° |
| 2026-04-24 22:49 | 26.71758 | -80.27386 | 17111 ft | 418 kts | 342° |
| 2026-04-24 22:49 | 26.74497 | -80.28460 | 17547 ft | 419 kts | 336° |
| 2026-04-24 22:49 | 26.77208 | -80.29680 | 17994 ft | 421 kts | 335° |
| 2026-04-24 22:49 | 26.79942 | -80.30902 | 18416 ft | 424 kts | 336° |
| 2026-04-24 22:50 | 26.82697 | -80.32101 | 18809 ft | 426 kts | 336° |
| 2026-04-24 22:50 | 26.85476 | -80.33282 | 19201 ft | 429 kts | 337° |
| 2026-04-24 22:50 | 26.88282 | -80.34458 | 19586 ft | 431 kts | 337° |
| 2026-04-24 22:50 | 26.91105 | -80.35637 | 19955 ft | 434 kts | 337° |
| 2026-04-24 22:51 | 26.93934 | -80.36821 | 20327 ft | 435 kts | 337° |
| 2026-04-24 22:51 | 26.96790 | -80.37993 | 20685 ft | 438 kts | 338° |
| 2026-04-24 22:51 | 26.99658 | -80.39143 | 21024 ft | 440 kts | 338° |
| 2026-04-24 22:51 | 27.01575 | -80.39909 | 21238 ft | 441 kts | 338° |
| 2026-04-24 22:52 | 27.05416 | -80.41450 | 21662 ft | 444 kts | 338° |
| 2026-04-24 22:52 | 27.08330 | -80.42625 | 21986 ft | 446 kts | 338° |
| 2026-04-24 22:52 | 27.11239 | -80.43831 | 22278 ft | 447 kts | 337° |
| 2026-04-24 22:52 | 27.14147 | -80.45106 | 22545 ft | 449 kts | 336° |
| 2026-04-24 22:53 | 27.17048 | -80.46404 | 22804 ft | 451 kts | 336° |
| 2026-04-24 22:53 | 27.19967 | -80.47713 | 23071 ft | 452 kts | 336° |
| 2026-04-24 22:53 | 27.22895 | -80.49021 | 23323 ft | 454 kts | 336° |
| 2026-04-24 22:53 | 27.25842 | -80.50330 | 23567 ft | 456 kts | 336° |
| 2026-04-24 22:54 | 27.27799 | -80.51197 | 23730 ft | 457 kts | 336° |
| 2026-04-24 22:54 | 27.30755 | -80.52505 | 23947 ft | 458 kts | 336° |
| 2026-04-24 22:54 | 27.33727 | -80.53819 | 24178 ft | 460 kts | 336° |
| 2026-04-24 22:54 | 27.36706 | -80.55137 | 24391 ft | 461 kts | 336° |
| 2026-04-24 22:55 | 27.40706 | -80.56814 | 24686 ft | 464 kts | 338° |
| 2026-04-24 22:55 | 27.43747 | -80.58015 | 25004 ft | 462 kts | 339° |
| 2026-04-24 22:55 | 27.45803 | -80.58814 | 25257 ft | 461 kts | 339° |
| 2026-04-24 22:55 | 27.49808 | -80.60368 | 25778 ft | 459 kts | 339° |
| 2026-04-24 22:56 | 27.51797 | -80.61144 | 26034 ft | 457 kts | 339° |
| 2026-04-24 22:56 | 27.54801 | -80.62324 | 26401 ft | 457 kts | 338° |
| 2026-04-24 22:56 | 27.57799 | -80.63509 | 26790 ft | 455 kts | 338° |
| 2026-04-24 22:56 | 27.60785 | -80.64695 | 27182 ft | 455 kts | 338° |
| 2026-04-24 22:57 | 27.63757 | -80.65880 | 27606 ft | 453 kts | 338° |
| 2026-04-24 22:57 | 27.66722 | -80.67064 | 28023 ft | 451 kts | 338° |
| 2026-04-24 22:57 | 27.69679 | -80.68245 | 28442 ft | 450 kts | 338° |
| 2026-04-24 22:57 | 27.72618 | -80.69419 | 28867 ft | 448 kts | 338° |
| 2026-04-24 22:58 | 27.75558 | -80.70595 | 29283 ft | 447 kts | 338° |
| 2026-04-24 22:58 | 27.78488 | -80.71766 | 29716 ft | 446 kts | 338° |
| 2026-04-24 22:58 | 27.81399 | -80.72931 | 30178 ft | 444 kts | 338° |
| 2026-04-24 22:58 | 27.84295 | -80.74089 | 30619 ft | 442 kts | 338° |
| 2026-04-24 22:59 | 27.87151 | -80.75233 | 30991 ft | 442 kts | 338° |
| 2026-04-24 22:59 | 27.90054 | -80.76397 | 31324 ft | 442 kts | 338° |
| 2026-04-24 22:59 | 27.95844 | -80.78719 | 32074 ft | 441 kts | 338° |
| 2026-04-24 23:00 | 27.98732 | -80.79879 | 32420 ft | 441 kts | 338° |
| 2026-04-24 23:00 | 28.01620 | -80.81039 | 32763 ft | 440 kts | 338° |
| 2026-04-24 23:00 | 28.04508 | -80.82200 | 33019 ft | 441 kts | 338° |
| 2026-04-24 23:00 | 28.07409 | -80.83367 | 33234 ft | 443 kts | 338° |
| 2026-04-24 23:01 | 28.10310 | -80.84534 | 33559 ft | 442 kts | 338° |
| 2026-04-24 23:01 | 28.13205 | -80.85699 | 33921 ft | 440 kts | 338° |
| 2026-04-24 23:01 | 28.16055 | -80.86846 | 34215 ft | 440 kts | 338° |
| 2026-04-24 23:01 | 28.18939 | -80.88009 | 34454 ft | 441 kts | 338° |
| 2026-04-24 23:02 | 28.21831 | -80.89175 | 34743 ft | 440 kts | 338° |
| 2026-04-24 23:02 | 28.24713 | -80.90338 | 34980 ft | 441 kts | 338° |
| 2026-04-24 23:02 | 28.27619 | -80.91512 | 34958 ft | 445 kts | 338° |
| 2026-04-24 23:03 | 28.33491 | -80.93886 | 34974 ft | 451 kts | 338° |
| 2026-04-24 23:03 | 28.39413 | -80.96281 | 34977 ft | 452 kts | 338° |
| 2026-04-24 23:04 | 28.45347 | -80.98683 | 34972 ft | 453 kts | 338° |
| 2026-04-24 23:04 | 28.51249 | -81.01076 | 34966 ft | 453 kts | 338° |
| 2026-04-24 23:05 | 28.57192 | -81.03489 | 34962 ft | 453 kts | 338° |
| 2026-04-24 23:05 | 28.63123 | -81.05899 | 34961 ft | 453 kts | 338° |
| 2026-04-24 23:06 | 28.69032 | -81.08304 | 34961 ft | 452 kts | 338° |
| 2026-04-24 23:06 | 28.74951 | -81.10716 | 34956 ft | 452 kts | 338° |
| 2026-04-24 23:07 | 28.80709 | -81.13064 | 34949 ft | 452 kts | 338° |
| 2026-04-24 23:07 | 28.86584 | -81.15464 | 34951 ft | 451 kts | 338° |
| 2026-04-24 23:08 | 28.92486 | -81.17878 | 34961 ft | 451 kts | 338° |
| 2026-04-24 23:08 | 28.98391 | -81.20296 | 34964 ft | 451 kts | 338° |
| 2026-04-24 23:09 | 29.04294 | -81.22716 | 34972 ft | 450 kts | 338° |
| 2026-04-24 23:09 | 29.10196 | -81.25138 | 34970 ft | 450 kts | 338° |
| 2026-04-24 23:10 | 29.16052 | -81.27545 | 34973 ft | 451 kts | 338° |
| 2026-04-24 23:10 | 29.21958 | -81.29975 | 34973 ft | 451 kts | 338° |
| 2026-04-24 23:11 | 29.27899 | -81.32321 | 34954 ft | 454 kts | 346° |
| 2026-04-24 23:11 | 29.34230 | -81.32830 | 34959 ft | 458 kts | 355° |
| 2026-04-24 23:12 | 29.40614 | -81.33108 | 34958 ft | 460 kts | 355° |
| 2026-04-24 23:12 | 29.46964 | -81.33441 | 34971 ft | 460 kts | 355° |
| 2026-04-24 23:13 | 29.53368 | -81.33816 | 34969 ft | 461 kts | 355° |
| 2026-04-24 23:13 | 29.59774 | -81.34198 | 34969 ft | 462 kts | 355° |
| 2026-04-24 23:14 | 29.66200 | -81.34580 | 34963 ft | 462 kts | 355° |
| 2026-04-24 23:14 | 29.72575 | -81.34959 | 34963 ft | 462 kts | 355° |
| 2026-04-24 23:15 | 29.79003 | -81.35341 | 34964 ft | 462 kts | 355° |
| 2026-04-24 23:15 | 29.85423 | -81.35723 | 34963 ft | 462 kts | 355° |
| 2026-04-24 23:16 | 29.91849 | -81.36107 | 34970 ft | 462 kts | 355° |
| 2026-04-24 23:16 | 29.98270 | -81.36489 | 34971 ft | 462 kts | 355° |
| 2026-04-24 23:17 | 30.04643 | -81.36870 | 34970 ft | 462 kts | 355° |
| 2026-04-24 23:17 | 30.11052 | -81.37253 | 34974 ft | 461 kts | 355° |
| 2026-04-24 23:18 | 30.17473 | -81.37635 | 34962 ft | 462 kts | 355° |
| 2026-04-24 23:18 | 30.23893 | -81.38010 | 34963 ft | 462 kts | 355° |
| 2026-04-24 23:19 | 30.30272 | -81.38382 | 34950 ft | 462 kts | 355° |
| 2026-04-24 23:19 | 30.36681 | -81.38758 | 34954 ft | 462 kts | 355° |
| 2026-04-24 23:20 | 30.43099 | -81.39135 | 34957 ft | 462 kts | 355° |
| 2026-04-24 23:20 | 30.49516 | -81.39504 | 34953 ft | 462 kts | 355° |
| 2026-04-24 23:21 | 30.55944 | -81.39847 | 34954 ft | 462 kts | 355° |
| 2026-04-24 23:21 | 30.62366 | -81.40188 | 34963 ft | 462 kts | 355° |
| 2026-04-24 23:22 | 30.68749 | -81.40530 | 34962 ft | 462 kts | 355° |
| 2026-04-24 23:22 | 30.75172 | -81.40878 | 34965 ft | 462 kts | 355° |
| 2026-04-24 23:23 | 30.81603 | -81.41227 | 34962 ft | 463 kts | 355° |
| 2026-04-24 23:23 | 30.88042 | -81.41576 | 34956 ft | 463 kts | 355° |
| 2026-04-24 23:24 | 30.94434 | -81.41923 | 34956 ft | 463 kts | 355° |
| 2026-04-24 23:24 | 31.00865 | -81.42272 | 34952 ft | 463 kts | 355° |
| 2026-04-24 23:25 | 31.07300 | -81.42623 | 34945 ft | 463 kts | 355° |
| 2026-04-24 23:25 | 31.13741 | -81.42974 | 34942 ft | 463 kts | 355° |
| 2026-04-24 23:26 | 31.20127 | -81.43323 | 34946 ft | 463 kts | 355° |
| 2026-04-24 23:26 | 31.26530 | -81.42601 | 34954 ft | 467 kts | 13° |
| 2026-04-24 23:27 | 31.32578 | -81.39782 | 34961 ft | 469 kts | 24° |
| 2026-04-24 23:27 | 31.38455 | -81.36479 | 34956 ft | 469 kts | 24° |
| 2026-04-24 23:28 | 31.44323 | -81.33227 | 34952 ft | 469 kts | 23° |
| 2026-04-24 23:28 | 31.50241 | -81.29999 | 34946 ft | 470 kts | 23° |
| 2026-04-24 23:29 | 31.56169 | -81.26773 | 34939 ft | 470 kts | 23° |
| 2026-04-24 23:29 | 31.62105 | -81.23534 | 34933 ft | 470 kts | 23° |
| 2026-04-24 23:30 | 31.68037 | -81.20291 | 34928 ft | 470 kts | 23° |
| 2026-04-24 23:30 | 31.73928 | -81.17068 | 34924 ft | 470 kts | 23° |
| 2026-04-24 23:31 | 31.79859 | -81.13819 | 34929 ft | 470 kts | 23° |
| 2026-04-24 23:31 | 31.85793 | -81.10562 | 34925 ft | 471 kts | 23° |
| 2026-04-24 23:32 | 31.91729 | -81.07299 | 34922 ft | 471 kts | 23° |
| 2026-04-24 23:32 | 31.97656 | -81.04039 | 34914 ft | 470 kts | 23° |
| 2026-04-24 23:33 | 32.03535 | -81.00786 | 34920 ft | 470 kts | 24° |
| 2026-04-24 23:33 | 32.09442 | -80.97479 | 34928 ft | 470 kts | 24° |
| 2026-04-24 23:34 | 32.15340 | -80.94170 | 34936 ft | 469 kts | 24° |
| 2026-04-24 23:34 | 32.21230 | -80.90864 | 34939 ft | 469 kts | 24° |
| 2026-04-24 23:35 | 32.27090 | -80.87571 | 34954 ft | 469 kts | 24° |
| 2026-04-24 23:35 | 32.32983 | -80.84259 | 34954 ft | 469 kts | 24° |
| 2026-04-24 23:36 | 32.38877 | -80.80940 | 34946 ft | 469 kts | 24° |
| 2026-04-24 23:36 | 32.44763 | -80.77620 | 34943 ft | 469 kts | 24° |
| 2026-04-24 23:37 | 32.50654 | -80.74291 | 34945 ft | 469 kts | 24° |
| 2026-04-24 23:37 | 32.59445 | -80.69314 | 34948 ft | 469 kts | 24° |
| 2026-04-24 23:38 | 32.65335 | -80.65976 | 34947 ft | 469 kts | 24° |
| 2026-04-24 23:38 | 32.71220 | -80.62634 | 34941 ft | 469 kts | 24° |
| 2026-04-24 23:39 | 32.77027 | -80.59238 | 34948 ft | 469 kts | 25° |
| 2026-04-24 23:39 | 32.82852 | -80.55760 | 34940 ft | 469 kts | 25° |
| 2026-04-24 23:40 | 32.88684 | -80.52279 | 34946 ft | 469 kts | 25° |
| 2026-04-24 23:40 | 32.94516 | -80.48805 | 34943 ft | 469 kts | 25° |
| 2026-04-24 23:41 | 33.00314 | -80.45351 | 34933 ft | 469 kts | 25° |
| 2026-04-24 23:41 | 33.06145 | -80.41872 | 34930 ft | 469 kts | 25° |
| 2026-04-24 23:42 | 33.11975 | -80.38389 | 34925 ft | 469 kts | 25° |
| 2026-04-24 23:42 | 33.17810 | -80.34897 | 34918 ft | 469 kts | 25° |
| 2026-04-24 23:43 | 33.23643 | -80.31401 | 34919 ft | 469 kts | 25° |
| 2026-04-24 23:43 | 33.29421 | -80.27932 | 34915 ft | 468 kts | 25° |
| 2026-04-24 23:44 | 33.35242 | -80.24432 | 34924 ft | 468 kts | 25° |
| 2026-04-24 23:44 | 33.41052 | -80.20934 | 34924 ft | 468 kts | 25° |
| 2026-04-24 23:45 | 33.46831 | -80.17450 | 34916 ft | 468 kts | 25° |
| 2026-04-24 23:45 | 33.52636 | -80.13945 | 34918 ft | 467 kts | 25° |
| 2026-04-24 23:46 | 33.58439 | -80.10434 | 34912 ft | 467 kts | 25° |
| 2026-04-24 23:46 | 33.64241 | -80.06920 | 34919 ft | 467 kts | 25° |
| 2026-04-24 23:47 | 33.70040 | -80.03402 | 34919 ft | 467 kts | 25° |
| 2026-04-24 23:47 | 33.75798 | -79.99904 | 34915 ft | 467 kts | 25° |
| 2026-04-24 23:48 | 33.81598 | -79.96374 | 34917 ft | 467 kts | 25° |
| 2026-04-24 23:48 | 33.87390 | -79.92843 | 34915 ft | 467 kts | 25° |
| 2026-04-24 23:49 | 33.93187 | -79.89301 | 34915 ft | 467 kts | 25° |
| 2026-04-24 23:49 | 33.98994 | -79.85748 | 34910 ft | 468 kts | 25° |
| 2026-04-24 23:50 | 34.04755 | -79.82220 | 34906 ft | 468 kts | 25° |
| 2026-04-24 23:50 | 34.10569 | -79.78654 | 34898 ft | 468 kts | 25° |
| 2026-04-24 23:51 | 34.16364 | -79.75093 | 34898 ft | 468 kts | 25° |
| 2026-04-24 23:51 | 34.22121 | -79.71545 | 34898 ft | 467 kts | 25° |
| 2026-04-24 23:52 | 34.27908 | -79.67968 | 34898 ft | 467 kts | 25° |
| 2026-04-24 23:52 | 34.33685 | -79.64390 | 34899 ft | 467 kts | 25° |
| 2026-04-24 23:53 | 34.39467 | -79.60807 | 34898 ft | 467 kts | 25° |
| 2026-04-24 23:53 | 34.45252 | -79.57221 | 34897 ft | 467 kts | 25° |
| 2026-04-24 23:54 | 34.50996 | -79.53655 | 34894 ft | 467 kts | 25° |
| 2026-04-24 23:54 | 34.56763 | -79.50040 | 34887 ft | 467 kts | 26° |
| 2026-04-24 23:55 | 34.62433 | -79.46193 | 34889 ft | 467 kts | 27° |
| 2026-04-24 23:55 | 34.68107 | -79.42367 | 34876 ft | 466 kts | 24° |
| 2026-04-24 23:56 | 34.74159 | -79.39971 | 34884 ft | 459 kts | 7° |
| 2026-04-24 23:56 | 34.80450 | -79.38693 | 34874 ft | 458 kts | 7° |
| 2026-04-24 23:57 | 34.86735 | -79.37433 | 34876 ft | 458 kts | 7° |
| 2026-04-24 23:57 | 34.93012 | -79.36121 | 34872 ft | 458 kts | 7° |
| 2026-04-24 23:58 | 34.99288 | -79.34780 | 34863 ft | 458 kts | 7° |
| 2026-04-24 23:58 | 35.05577 | -79.33431 | 34853 ft | 458 kts | 7° |
| 2026-04-24 23:59 | 35.11815 | -79.32094 | 34859 ft | 458 kts | 7° |
| 2026-04-24 23:59 | 35.18091 | -79.30742 | 34873 ft | 458 kts | 7° |
| 2026-04-25 00:00 | 35.24374 | -79.29389 | 34880 ft | 458 kts | 7° |
| 2026-04-25 00:00 | 35.30645 | -79.28037 | 34883 ft | 457 kts | 7° |
| 2026-04-25 00:01 | 35.36910 | -79.26685 | 34883 ft | 458 kts | 7° |
| 2026-04-25 00:01 | 35.43139 | -79.25337 | 34879 ft | 458 kts | 7° |
| 2026-04-25 00:02 | 35.49412 | -79.23979 | 34879 ft | 458 kts | 7° |
| 2026-04-25 00:02 | 35.55683 | -79.22618 | 34879 ft | 458 kts | 7° |
| 2026-04-25 00:03 | 35.61951 | -79.21256 | 34878 ft | 457 kts | 7° |
| 2026-04-25 00:03 | 35.68218 | -79.19892 | 34881 ft | 457 kts | 7° |
| 2026-04-25 00:04 | 35.74354 | -79.18030 | 34879 ft | 461 kts | 20° |
| 2026-04-25 00:04 | 35.79926 | -79.14099 | 34891 ft | 464 kts | 33° |
| 2026-04-25 00:05 | 35.85173 | -79.09437 | 34886 ft | 465 kts | 33° |
| 2026-04-25 00:05 | 35.90406 | -79.04783 | 34883 ft | 464 kts | 33° |
| 2026-04-25 00:06 | 35.95625 | -79.00200 | 34889 ft | 464 kts | 33° |
| 2026-04-25 00:06 | 36.00888 | -78.95600 | 34886 ft | 463 kts | 32° |
| 2026-04-25 00:07 | 36.06137 | -78.91009 | 34893 ft | 462 kts | 32° |
| 2026-04-25 00:07 | 36.11371 | -78.86422 | 34886 ft | 460 kts | 32° |
| 2026-04-25 00:08 | 36.16554 | -78.81870 | 34890 ft | 459 kts | 32° |
| 2026-04-25 00:08 | 36.21749 | -78.77299 | 34893 ft | 458 kts | 32° |
| 2026-04-25 00:09 | 36.26932 | -78.72732 | 34888 ft | 457 kts | 32° |
| 2026-04-25 00:09 | 36.32107 | -78.68163 | 34886 ft | 457 kts | 32° |
| 2026-04-25 00:10 | 36.37280 | -78.63588 | 34879 ft | 456 kts | 32° |
| 2026-04-25 00:10 | 36.42413 | -78.59042 | 34871 ft | 457 kts | 32° |
| 2026-04-25 00:11 | 36.47654 | -78.54586 | 34871 ft | 456 kts | 29° |
| 2026-04-25 00:11 | 36.52991 | -78.50455 | 34868 ft | 456 kts | 28° |
| 2026-04-25 00:12 | 36.58355 | -78.46328 | 34859 ft | 457 kts | 28° |
| 2026-04-25 00:12 | 36.63744 | -78.42127 | 34870 ft | 457 kts | 29° |
| 2026-04-25 00:13 | 36.69119 | -78.37901 | 34872 ft | 458 kts | 29° |
| 2026-04-25 00:13 | 36.74513 | -78.33654 | 34877 ft | 457 kts | 29° |
| 2026-04-25 00:14 | 36.79890 | -78.29415 | 34880 ft | 457 kts | 29° |
| 2026-04-25 00:14 | 36.85228 | -78.25200 | 34880 ft | 457 kts | 29° |
| 2026-04-25 00:15 | 36.90599 | -78.20950 | 34868 ft | 457 kts | 28° |
| 2026-04-25 00:15 | 36.95975 | -78.16691 | 34859 ft | 457 kts | 28° |
| 2026-04-25 00:16 | 37.01327 | -78.12440 | 34864 ft | 456 kts | 28° |
| 2026-04-25 00:16 | 37.06640 | -78.08201 | 34862 ft | 456 kts | 28° |
| 2026-04-25 00:17 | 37.11995 | -78.03919 | 34859 ft | 456 kts | 28° |
| 2026-04-25 00:17 | 37.17341 | -77.99639 | 34863 ft | 456 kts | 28° |
| 2026-04-25 00:18 | 37.22678 | -77.95360 | 34860 ft | 455 kts | 28° |
| 2026-04-25 00:18 | 37.28010 | -77.91077 | 34854 ft | 455 kts | 28° |
| 2026-04-25 00:19 | 37.33305 | -77.86816 | 34863 ft | 455 kts | 28° |
| 2026-04-25 00:19 | 37.38624 | -77.82528 | 34881 ft | 454 kts | 28° |
| 2026-04-25 00:20 | 37.43947 | -77.78260 | 34885 ft | 454 kts | 27° |
| 2026-04-25 00:20 | 37.49280 | -77.74002 | 34880 ft | 454 kts | 27° |
| 2026-04-25 00:21 | 37.54568 | -77.69759 | 34880 ft | 454 kts | 28° |
| 2026-04-25 00:21 | 37.59885 | -77.65454 | 34879 ft | 454 kts | 28° |
| 2026-04-25 00:22 | 37.65197 | -77.61142 | 34878 ft | 454 kts | 28° |
| 2026-04-25 00:22 | 37.70511 | -77.56828 | 34877 ft | 454 kts | 28° |
| 2026-04-25 00:23 | 37.75827 | -77.52506 | 34881 ft | 454 kts | 28° |
| 2026-04-25 00:23 | 37.81105 | -77.48219 | 34879 ft | 454 kts | 28° |
| 2026-04-25 00:24 | 37.86419 | -77.43894 | 34873 ft | 454 kts | 28° |
| 2026-04-25 00:24 | 37.91734 | -77.39560 | 34874 ft | 454 kts | 28° |
| 2026-04-25 00:25 | 37.97045 | -77.35222 | 34869 ft | 454 kts | 28° |
| 2026-04-25 00:25 | 38.02315 | -77.30914 | 34859 ft | 454 kts | 27° |
| 2026-04-25 00:26 | 38.07614 | -77.26577 | 34862 ft | 453 kts | 27° |
| 2026-04-25 00:26 | 38.12898 | -77.22245 | 34851 ft | 452 kts | 27° |
| 2026-04-25 00:27 | 38.18165 | -77.17920 | 34846 ft | 450 kts | 27° |
| 2026-04-25 00:27 | 38.23422 | -77.13595 | 34853 ft | 450 kts | 27° |
| 2026-04-25 00:28 | 38.28632 | -77.09302 | 34862 ft | 449 kts | 27° |
| 2026-04-25 00:28 | 38.33736 | -77.04669 | 34866 ft | 452 kts | 31° |
| 2026-04-25 00:29 | 38.38720 | -76.99768 | 34860 ft | 452 kts | 31° |
| 2026-04-25 00:29 | 38.43695 | -76.94896 | 34864 ft | 451 kts | 31° |
| 2026-04-25 00:30 | 38.48650 | -76.90096 | 34865 ft | 450 kts | 31° |
| 2026-04-25 00:30 | 38.53651 | -76.85265 | 34860 ft | 451 kts | 31° |
| 2026-04-25 00:31 | 38.58644 | -76.80430 | 34876 ft | 450 kts | 31° |
| 2026-04-25 00:31 | 38.63628 | -76.75594 | 34879 ft | 450 kts | 31° |
| 2026-04-25 00:32 | 38.68615 | -76.70746 | 34870 ft | 450 kts | 30° |
| 2026-04-25 00:32 | 38.73572 | -76.65917 | 34874 ft | 450 kts | 30° |
| 2026-04-25 00:33 | 38.78550 | -76.61061 | 34867 ft | 450 kts | 30° |
| 2026-04-25 00:33 | 38.83519 | -76.56206 | 34870 ft | 449 kts | 30° |
| 2026-04-25 00:34 | 38.88480 | -76.51348 | 34880 ft | 449 kts | 30° |
| 2026-04-25 00:34 | 38.93437 | -76.46484 | 34877 ft | 449 kts | 30° |
| 2026-04-25 00:35 | 38.98359 | -76.41646 | 34881 ft | 448 kts | 30° |
| 2026-04-25 00:35 | 39.03296 | -76.36765 | 34876 ft | 448 kts | 32° |
| 2026-04-25 00:36 | 39.07980 | -76.31436 | 34868 ft | 444 kts | 35° |
| 2026-04-25 00:36 | 39.10190 | -76.28775 | 34859 ft | 427 kts | 35° |
| 2026-04-25 00:36 | 39.12324 | -76.26211 | 34856 ft | 411 kts | 34° |
| 2026-04-25 00:37 | 39.14355 | -76.23797 | 34818 ft | 396 kts | 33° |
| 2026-04-25 00:37 | 39.16359 | -76.21441 | 34627 ft | 386 kts | 33° |
| 2026-04-25 00:37 | 39.18332 | -76.19140 | 34256 ft | 381 kts | 33° |
| 2026-04-25 00:37 | 39.20304 | -76.16847 | 33729 ft | 381 kts | 33° |
| 2026-04-25 00:38 | 39.22294 | -76.14534 | 32783 ft | 392 kts | 33° |
| 2026-04-25 00:38 | 39.24362 | -76.12127 | 31542 ft | 409 kts | 34° |
| 2026-04-25 00:38 | 39.26521 | -76.09605 | 30130 ft | 428 kts | 35° |
| 2026-04-25 00:38 | 39.28769 | -76.06971 | 28686 ft | 445 kts | 36° |
| 2026-04-25 00:39 | 39.31065 | -76.04277 | 27347 ft | 458 kts | 36° |
| 2026-04-25 00:39 | 39.33398 | -76.01524 | 27107 ft | 451 kts | 36° |
| 2026-04-25 00:39 | 39.35678 | -75.98821 | 26945 ft | 437 kts | 36° |
| 2026-04-25 00:39 | 39.37873 | -75.96213 | 26871 ft | 420 kts | 36° |
| 2026-04-25 00:40 | 39.39978 | -75.93714 | 26848 ft | 402 kts | 35° |
| 2026-04-25 00:40 | 39.41993 | -75.91326 | 26854 ft | 385 kts | 35° |
| 2026-04-25 00:40 | 39.43906 | -75.89062 | 26860 ft | 370 kts | 34° |
| 2026-04-25 00:40 | 39.45765 | -75.86863 | 26849 ft | 355 kts | 34° |
| 2026-04-25 00:41 | 39.47545 | -75.84756 | 26862 ft | 340 kts | 34° |
| 2026-04-25 00:41 | 39.49251 | -75.82734 | 26873 ft | 325 kts | 33° |
| 2026-04-25 00:41 | 39.50885 | -75.80799 | 26873 ft | 311 kts | 33° |
| 2026-04-25 00:41 | 39.52444 | -75.78953 | 26860 ft | 298 kts | 32° |
| 2026-04-25 00:42 | 39.53958 | -75.77164 | 26831 ft | 293 kts | 32° |
| 2026-04-25 00:42 | 39.55469 | -75.75384 | 26507 ft | 294 kts | 32° |
| 2026-04-25 00:42 | 39.56981 | -75.73599 | 26099 ft | 295 kts | 32° |
| 2026-04-25 00:42 | 39.58499 | -75.71803 | 25666 ft | 297 kts | 32° |
| 2026-04-25 00:43 | 39.60012 | -75.70009 | 25189 ft | 300 kts | 33° |
| 2026-04-25 00:43 | 39.61564 | -75.68166 | 24657 ft | 306 kts | 33° |
| 2026-04-25 00:43 | 39.63155 | -75.66276 | 24057 ft | 314 kts | 33° |
| 2026-04-25 00:43 | 39.64785 | -75.64337 | 23402 ft | 323 kts | 33° |
| 2026-04-25 00:44 | 39.66481 | -75.62320 | 22485 ft | 339 kts | 34° |
| 2026-04-25 00:44 | 39.68274 | -75.60191 | 21225 ft | 364 kts | 35° |
| 2026-04-25 00:44 | 39.70200 | -75.57895 | 19937 ft | 385 kts | 36° |
| 2026-04-25 00:44 | 39.72187 | -75.55504 | 18901 ft | 388 kts | 36° |
| 2026-04-25 00:45 | 39.74118 | -75.53155 | 18621 ft | 383 kts | 36° |
| 2026-04-25 00:45 | 39.76093 | -75.50770 | 18251 ft | 400 kts | 36° |
| 2026-04-25 00:45 | 39.78169 | -75.48269 | 17841 ft | 415 kts | 37° |
| 2026-04-25 00:45 | 39.80312 | -75.45683 | 17424 ft | 423 kts | 37° |
| 2026-04-25 00:46 | 39.82469 | -75.43069 | 16951 ft | 422 kts | 37° |
| 2026-04-25 00:46 | 39.84597 | -75.40484 | 16508 ft | 418 kts | 37° |
| 2026-04-25 00:46 | 39.88823 | -75.35355 | 15656 ft | 411 kts | 37° |
| 2026-04-25 00:47 | 39.90907 | -75.32828 | 15238 ft | 409 kts | 37° |
| 2026-04-25 00:47 | 39.92981 | -75.30313 | 14821 ft | 407 kts | 37° |
| 2026-04-25 00:47 | 39.95017 | -75.27841 | 14416 ft | 404 kts | 37° |
| 2026-04-25 00:47 | 39.97071 | -75.25345 | 14014 ft | 403 kts | 37° |
| 2026-04-25 00:48 | 39.99116 | -75.22857 | 13599 ft | 402 kts | 37° |
| 2026-04-25 00:48 | 40.01154 | -75.20375 | 13191 ft | 400 kts | 37° |
| 2026-04-25 00:48 | 40.03173 | -75.17912 | 12790 ft | 397 kts | 37° |
| 2026-04-25 00:48 | 40.05193 | -75.15446 | 12379 ft | 393 kts | 37° |
| 2026-04-25 00:49 | 40.07132 | -75.13070 | 11966 ft | 372 kts | 36° |
| 2026-04-25 00:49 | 40.08960 | -75.10829 | 11593 ft | 351 kts | 36° |
| 2026-04-25 00:49 | 40.10699 | -75.08704 | 11247 ft | 333 kts | 36° |
| 2026-04-25 00:49 | 40.12324 | -75.06713 | 10919 ft | 318 kts | 36° |
| 2026-04-25 00:50 | 40.13901 | -75.04782 | 10632 ft | 304 kts | 36° |
| 2026-04-25 00:50 | 40.15401 | -75.02940 | 10413 ft | 289 kts | 36° |
| 2026-04-25 00:50 | 40.16841 | -75.01176 | 10155 ft | 280 kts | 36° |
| 2026-04-25 00:50 | 40.18251 | -74.99453 | 9905 ft | 275 kts | 37° |
| 2026-04-25 00:51 | 40.19650 | -74.97745 | 9661 ft | 275 kts | 37° |
| 2026-04-25 00:51 | 40.21053 | -74.96027 | 9418 ft | 279 kts | 38° |
| 2026-04-25 00:51 | 40.22478 | -74.94280 | 9165 ft | 282 kts | 38° |
| 2026-04-25 00:51 | 40.23906 | -74.92524 | 8899 ft | 282 kts | 38° |
| 2026-04-25 00:52 | 40.25313 | -74.90792 | 8634 ft | 282 kts | 39° |
| 2026-04-25 00:52 | 40.26683 | -74.88956 | 8370 ft | 282 kts | 43° |
| 2026-04-25 00:52 | 40.28007 | -74.87080 | 8118 ft | 279 kts | 43° |
| 2026-04-25 00:52 | 40.29311 | -74.85220 | 7879 ft | 274 kts | 43° |
| 2026-04-25 00:53 | 40.30594 | -74.83403 | 7678 ft | 270 kts | 43° |
| 2026-04-25 00:53 | 40.31868 | -74.81605 | 7482 ft | 269 kts | 43° |
| 2026-04-25 00:53 | 40.33147 | -74.79807 | 7307 ft | 270 kts | 43° |
| 2026-04-25 00:53 | 40.34432 | -74.78002 | 7113 ft | 271 kts | 43° |
| 2026-04-25 00:54 | 40.35689 | -74.76234 | 6923 ft | 268 kts | 43° |
| 2026-04-25 00:54 | 40.36956 | -74.74447 | 6722 ft | 266 kts | 43° |
| 2026-04-25 00:54 | 40.38209 | -74.72682 | 6549 ft | 264 kts | 43° |
| 2026-04-25 00:54 | 40.39458 | -74.70925 | 6362 ft | 263 kts | 44° |
| 2026-04-25 00:55 | 40.40701 | -74.69172 | 6176 ft | 262 kts | 44° |
| 2026-04-25 00:55 | 40.41928 | -74.67416 | 5985 ft | 261 kts | 48° |
| 2026-04-25 00:55 | 40.42742 | -74.65288 | 5794 ft | 264 kts | 70° |
| 2026-04-25 00:55 | 40.43268 | -74.62988 | 5626 ft | 263 kts | 70° |
| 2026-04-25 00:56 | 40.43796 | -74.60689 | 5413 ft | 263 kts | 71° |
| 2026-04-25 00:56 | 40.44320 | -74.58427 | 5245 ft | 262 kts | 71° |
| 2026-04-25 00:56 | 40.44854 | -74.56146 | 5061 ft | 260 kts | 71° |
| 2026-04-25 00:56 | 40.45387 | -74.53881 | 4877 ft | 259 kts | 71° |
| 2026-04-25 00:57 | 40.45916 | -74.51629 | 4700 ft | 258 kts | 71° |
| 2026-04-25 00:57 | 40.46448 | -74.49380 | 4521 ft | 257 kts | 71° |
| 2026-04-25 00:57 | 40.46786 | -74.47081 | 4304 ft | 260 kts | 91° |
| 2026-04-25 00:57 | 40.46284 | -74.44827 | 4152 ft | 259 kts | 121° |
| 2026-04-25 00:58 | 40.45017 | -74.43209 | 4073 ft | 255 kts | 152° |
| 2026-04-25 00:58 | 40.43329 | -74.42644 | 4075 ft | 254 kts | 182° |
| 2026-04-25 00:58 | 40.41649 | -74.43240 | 4080 ft | 257 kts | 211° |
| 2026-04-25 00:58 | 40.40377 | -74.44868 | 4086 ft | 259 kts | 241° |
| 2026-04-25 00:59 | 40.39874 | -74.47088 | 4090 ft | 256 kts | 270° |
| 2026-04-25 00:59 | 40.40263 | -74.49339 | 4090 ft | 254 kts | 300° |
| 2026-04-25 00:59 | 40.41440 | -74.51026 | 4095 ft | 252 kts | 329° |
| 2026-04-25 00:59 | 40.43087 | -74.51715 | 4094 ft | 252 kts | 359° |
| 2026-04-25 01:00 | 40.44795 | -74.51309 | 4092 ft | 252 kts | 26° |
| 2026-04-25 01:00 | 40.46055 | -74.49760 | 4086 ft | 251 kts | 61° |
| 2026-04-25 01:00 | 40.46752 | -74.47660 | 4129 ft | 254 kts | 68° |
| 2026-04-25 01:00 | 40.47155 | -74.46187 | 4130 ft | 259 kts | 70° |
| 2026-04-25 01:01 | 40.47536 | -74.44686 | 4130 ft | 257 kts | 71° |
| 2026-04-25 01:01 | 40.48082 | -74.42441 | 3949 ft | 258 kts | 72° |
| 2026-04-25 01:01 | 40.48613 | -74.40210 | 3764 ft | 254 kts | 72° |
| 2026-04-25 01:01 | 40.49132 | -74.38013 | 3576 ft | 249 kts | 72° |
| 2026-04-25 01:02 | 40.49626 | -74.35913 | 3423 ft | 245 kts | 72° |
| 2026-04-25 01:02 | 40.50126 | -74.33778 | 3263 ft | 244 kts | 73° |
| 2026-04-25 01:02 | 40.50619 | -74.31683 | 3168 ft | 233 kts | 73° |
| 2026-04-25 01:02 | 40.51076 | -74.29736 | 3039 ft | 214 kts | 73° |
| 2026-04-25 01:03 | 40.51628 | -74.28021 | 2888 ft | 198 kts | 50° |
| 2026-04-25 01:03 | 40.52719 | -74.27142 | 2824 ft | 181 kts | 23° |
| 2026-04-25 01:03 | 40.53811 | -74.26426 | 2796 ft | 174 kts | 31° |
| 2026-04-25 01:03 | 40.54891 | -74.25670 | 2760 ft | 177 kts | 29° |
| 2026-04-25 01:04 | 40.55998 | -74.24942 | 2560 ft | 178 kts | 28° |
| 2026-04-25 01:04 | 40.57089 | -74.24241 | 2365 ft | 173 kts | 28° |
| 2026-04-25 01:04 | 40.58136 | -74.23572 | 2136 ft | 169 kts | 28° |
| 2026-04-25 01:04 | 40.59182 | -74.22903 | 1917 ft | 167 kts | 28° |
| 2026-04-25 01:05 | 40.60193 | -74.22257 | 1695 ft | 160 kts | 28° |
| 2026-04-25 01:05 | 40.61199 | -74.21615 | 1524 ft | 157 kts | 27° |
| 2026-04-25 01:05 | 40.62181 | -74.20988 | 1291 ft | 159 kts | 27° |
| 2026-04-25 01:05 | 40.63167 | -74.20357 | 1095 ft | 155 kts | 27° |
| 2026-04-25 01:06 | 40.64106 | -74.19758 | 868 ft | 146 kts | 27° |
| 2026-04-25 01:06 | 40.65013 | -74.19169 | 715 ft | 145 kts | 29° |
| 2026-04-25 01:06 | 40.65917 | -74.18592 | 502 ft | 144 kts | 27° |
| 2026-04-25 01:06 | 40.66809 | -74.18030 | 295 ft | 139 kts | 28° |
| 2026-04-25 01:07 | 40.67673 | -74.17479 | 105 ft | 139 kts | 27° |
| 2026-04-25 01:07 | 40.68521 | -74.16944 | 22 ft | 126 kts | 27° |
| 2026-04-25 01:07 | 40.69180 | -74.16521 | 24 ft | 84 kts | 26° |
| 2026-04-25 01:07 | 40.69502 | -74.16317 | 22 ft | 40 kts | 22° |
| 2026-04-25 01:08 | 40.69699 | -74.16297 | 21 ft | 17 kts | 356° |
| 2026-04-25 01:08 | 40.69751 | -74.16302 | 20 ft | 3 kts | 356° |
| 2026-04-25 01:08 | 40.69774 | -74.16304 | 23 ft | 3 kts | 356° |
| 2026-04-25 01:08 | 40.69796 | -74.16306 | 22 ft | 3 kts | 356° |
| 2026-04-25 01:09 | 40.69818 | -74.16307 | 22 ft | 3 kts | 356° |
| 2026-04-25 01:09 | 40.69843 | -74.16309 | 20 ft | 5 kts | 1° |
| 2026-04-25 01:09 | 40.69891 | -74.16288 | 21 ft | 10 kts | 26° |
| 2026-04-25 01:09 | 40.69952 | -74.16306 | 20 ft | 11 kts | 301° |
| 2026-04-25 01:10 | 40.69982 | -74.16404 | 18 ft | 12 kts | 281° |
| 2026-04-25 01:10 | 40.69989 | -74.16509 | 19 ft | 11 kts | 274° |
| 2026-04-25 01:10 | 40.69994 | -74.16612 | 21 ft | 11 kts | 274° |
| 2026-04-25 01:10 | 40.70000 | -74.16712 | 23 ft | 11 kts | 275° |
| 2026-04-25 01:11 | 40.70006 | -74.16810 | 21 ft | 11 kts | 275° |
| 2026-04-25 01:11 | 40.70012 | -74.16904 | 21 ft | 10 kts | 275° |
| 2026-04-25 01:11 | 40.70018 | -74.16996 | 23 ft | 10 kts | 275° |
| 2026-04-25 01:11 | 40.70025 | -74.17086 | 21 ft | 10 kts | 275° |
| 2026-04-25 01:12 | 40.70032 | -74.17192 | 23 ft | 14 kts | 275° |
| 2026-04-25 01:12 | 40.70042 | -74.17337 | 21 ft | 19 kts | 275° |
| 2026-04-25 01:12 | 40.70054 | -74.17533 | 21 ft | 24 kts | 276° |
| 2026-04-25 01:12 | 40.70069 | -74.17760 | 21 ft | 24 kts | 274° |
| 2026-04-25 01:13 | 40.70083 | -74.17975 | 21 ft | 22 kts | 276° |
| 2026-04-25 01:13 | 40.70080 | -74.18111 | 21 ft | 13 kts | 232° |
| 2026-04-25 01:13 | 40.69994 | -74.18148 | 22 ft | 13 kts | 191° |
| 2026-04-25 01:13 | 40.69907 | -74.18170 | 21 ft | 13 kts | 189° |
| 2026-04-25 01:14 | 40.69825 | -74.18139 | 23 ft | 12 kts | 153° |
| 2026-04-25 01:14 | 40.69763 | -74.18098 | 22 ft | 6 kts | 153° |
| 2026-04-25 01:14 | 40.69742 | -74.18070 | 22 ft | 3 kts | 123° |
| 2026-04-25 01:14 | 40.69749 | -74.18050 | 23 ft | 3 kts | 51° |
| 2026-04-25 01:15 | 40.69761 | -74.18032 | 24 ft | 3 kts | 49° |
| 2026-04-25 01:15 | 40.69766 | -74.18021 | 21 ft | 1 kts | 60° |
| 2026-04-25 01:15 | 40.69771 | -74.18010 | 22 ft | 2 kts | 62° |
| 2026-04-25 01:15 | 40.69774 | -74.18000 | 21 ft | 0 kts | 64° |
| 2026-04-25 01:16 | 40.69775 | -74.17998 | 21 ft | 0 kts | 64° |